sensor_id;sensor_type;location;lat;lon;timestamp;temperature;humidity
28171;DHT22;15458;53.346;-1.688;2023-03-03T00:02:18;4.30;99.90
28171;DHT22;15458;53.346;-1.688;2023-03-03T00:04:43;4.30;99.90
28171;DHT22;15458;53.346;-1.688;2023-03-03T00:07:10;4.30;99.90
28171;DHT22;15458;53.346;-1.688;2023-03-03T00:09:36;4.30;99.90
28171;DHT22;15458;53.346;-1.688;2023-03-03T00:12:24;4.20;99.90
28171;DHT22;15458;53.346;-1.688;2023-03-03T00:14:51;4.20;99.90
28171;DHT22;15458;53.346;-1.688;2023-03-03T00:17:25;4.20;99.90
28171;DHT22;15458;53.346;-1.688;2023-03-03T00:19:51;4.20;99.90
28171;DHT22;15458;53.346;-1.688;2023-03-03T00:22:29;4.10;99.90
28171;DHT22;15458;53.346;-1.688;2023-03-03T00:24:59;4.10;99.90
28171;DHT22;15458;53.346;-1.688;2023-03-03T00:29:56;4.20;99.90
28171;DHT22;15458;53.346;-1.688;2023-03-03T00:32:43;4.20;99.90
28171;DHT22;15458;53.346;-1.688;2023-03-03T00:35:29;4.20;99.90
28171;DHT22;15458;53.346;-1.688;2023-03-03T00:37:57;4.10;99.90
28171;DHT22;15458;53.346;-1.688;2023-03-03T00:40:37;4.20;99.90
28171;DHT22;15458;53.346;-1.688;2023-03-03T00:45:52;4.20;99.90
28171;DHT22;15458;53.346;-1.688;2023-03-03T00:48:23;4.20;99.90
28171;DHT22;15458;53.346;-1.688;2023-03-03T00:50:50;4.20;99.90
28171;DHT22;15458;53.346;-1.688;2023-03-03T00:53:17;4.20;99.90
28171;DHT22;15458;53.346;-1.688;2023-03-03T00:55:44;4.10;99.90
28171;DHT22;15458;53.346;-1.688;2023-03-03T00:58:11;4.10;99.90
28171;DHT22;15458;53.346;-1.688;2023-03-03T01:00:37;4.10;99.90
28171;DHT22;15458;53.346;-1.688;2023-03-03T01:03:09;4.10;99.90
28171;DHT22;15458;53.346;-1.688;2023-03-03T01:05:37;4.10;99.90
28171;DHT22;15458;53.346;-1.688;2023-03-03T01:08:02;4.10;99.90
28171;DHT22;15458;53.346;-1.688;2023-03-03T01:10:31;4.10;99.90
28171;DHT22;15458;53.346;-1.688;2023-03-03T01:12:58;4.20;99.90
28171;DHT22;15458;53.346;-1.688;2023-03-03T01:15:24;4.20;99.90
28171;DHT22;15458;53.346;-1.688;2023-03-03T01:17:50;4.20;99.90
28171;DHT22;15458;53.346;-1.688;2023-03-03T01:20:16;4.30;99.90
28171;DHT22;15458;53.346;-1.688;2023-03-03T01:22:42;4.20;99.90
28171;DHT22;15458;53.346;-1.688;2023-03-03T01:25:09;4.20;99.90
28171;DHT22;15458;53.346;-1.688;2023-03-03T01:27:35;4.20;99.90
28171;DHT22;15458;53.346;-1.688;2023-03-03T01:30:02;4.20;99.90
28171;DHT22;15458;53.346;-1.688;2023-03-03T01:32:28;4.20;99.90
28171;DHT22;15458;53.346;-1.688;2023-03-03T01:34:54;4.20;99.90
28171;DHT22;15458;53.346;-1.688;2023-03-03T01:37:20;4.10;99.90
28171;DHT22;15458;53.346;-1.688;2023-03-03T01:39:51;4.00;99.90
28171;DHT22;15458;53.346;-1.688;2023-03-03T01:42:17;4.00;99.90
28171;DHT22;15458;53.346;-1.688;2023-03-03T01:44:43;4.00;99.90
28171;DHT22;15458;53.346;-1.688;2023-03-03T01:47:18;4.00;99.90
28171;DHT22;15458;53.346;-1.688;2023-03-03T01:52:37;4.00;99.90
28171;DHT22;15458;53.346;-1.688;2023-03-03T01:55:10;3.90;99.90
28171;DHT22;15458;53.346;-1.688;2023-03-03T01:57:40;3.90;99.90
28171;DHT22;15458;53.346;-1.688;2023-03-03T02:00:09;3.90;99.90
28171;DHT22;15458;53.346;-1.688;2023-03-03T02:02:36;3.90;99.90
28171;DHT22;15458;53.346;-1.688;2023-03-03T02:05:03;3.90;99.90
28171;DHT22;15458;53.346;-1.688;2023-03-03T02:07:30;3.90;99.90
28171;DHT22;15458;53.346;-1.688;2023-03-03T02:10:00;3.90;99.90
28171;DHT22;15458;53.346;-1.688;2023-03-03T02:12:33;3.90;99.90
28171;DHT22;15458;53.346;-1.688;2023-03-03T02:15:00;3.90;99.90
28171;DHT22;15458;53.346;-1.688;2023-03-03T02:17:25;3.90;99.90
28171;DHT22;15458;53.346;-1.688;2023-03-03T02:20:05;3.90;99.90
28171;DHT22;15458;53.346;-1.688;2023-03-03T02:22:43;3.80;99.90
28171;DHT22;15458;53.346;-1.688;2023-03-03T02:25:17;3.90;99.90
28171;DHT22;15458;53.346;-1.688;2023-03-03T02:27:44;3.80;99.90
28171;DHT22;15458;53.346;-1.688;2023-03-03T02:30:14;3.80;99.90
28171;DHT22;15458;53.346;-1.688;2023-03-03T02:32:40;3.80;99.90
28171;DHT22;15458;53.346;-1.688;2023-03-03T02:35:26;3.80;99.90
28171;DHT22;15458;53.346;-1.688;2023-03-03T02:37:52;3.70;99.90
28171;DHT22;15458;53.346;-1.688;2023-03-03T02:40:20;3.70;99.90
28171;DHT22;15458;53.346;-1.688;2023-03-03T02:42:51;3.70;99.90
28171;DHT22;15458;53.346;-1.688;2023-03-03T02:45:18;3.60;99.90
28171;DHT22;15458;53.346;-1.688;2023-03-03T02:47:50;3.60;99.90
28171;DHT22;15458;53.346;-1.688;2023-03-03T02:50:16;3.50;99.90
28171;DHT22;15458;53.346;-1.688;2023-03-03T02:52:41;3.60;99.90
28171;DHT22;15458;53.346;-1.688;2023-03-03T02:55:07;3.60;99.90
28171;DHT22;15458;53.346;-1.688;2023-03-03T02:57:33;3.60;99.90
28171;DHT22;15458;53.346;-1.688;2023-03-03T02:59:59;3.60;99.90
28171;DHT22;15458;53.346;-1.688;2023-03-03T03:02:24;3.50;99.90
28171;DHT22;15458;53.346;-1.688;2023-03-03T03:04:51;3.50;99.90
28171;DHT22;15458;53.346;-1.688;2023-03-03T03:07:17;3.50;99.90
28171;DHT22;15458;53.346;-1.688;2023-03-03T03:09:43;3.50;99.90
28171;DHT22;15458;53.346;-1.688;2023-03-03T03:12:08;3.50;99.90
28171;DHT22;15458;53.346;-1.688;2023-03-03T03:14:34;3.50;99.90
28171;DHT22;15458;53.346;-1.688;2023-03-03T03:17:00;3.50;99.90
28171;DHT22;15458;53.346;-1.688;2023-03-03T03:19:27;3.50;99.90
28171;DHT22;15458;53.346;-1.688;2023-03-03T03:21:53;3.60;99.90
28171;DHT22;15458;53.346;-1.688;2023-03-03T03:24:19;3.50;99.90
28171;DHT22;15458;53.346;-1.688;2023-03-03T03:26:44;3.50;99.90
28171;DHT22;15458;53.346;-1.688;2023-03-03T03:29:10;3.50;99.90
28171;DHT22;15458;53.346;-1.688;2023-03-03T03:31:36;3.50;99.90
28171;DHT22;15458;53.346;-1.688;2023-03-03T03:34:02;3.50;99.90
28171;DHT22;15458;53.346;-1.688;2023-03-03T03:36:27;3.50;99.90
28171;DHT22;15458;53.346;-1.688;2023-03-03T03:38:53;3.60;99.90
28171;DHT22;15458;53.346;-1.688;2023-03-03T03:41:19;3.50;99.90
28171;DHT22;15458;53.346;-1.688;2023-03-03T03:43:44;3.50;99.90
28171;DHT22;15458;53.346;-1.688;2023-03-03T03:46:10;3.50;99.90
28171;DHT22;15458;53.346;-1.688;2023-03-03T03:48:36;3.50;99.90
28171;DHT22;15458;53.346;-1.688;2023-03-03T03:51:02;3.60;99.90
28171;DHT22;15458;53.346;-1.688;2023-03-03T03:53:27;3.60;99.90
28171;DHT22;15458;53.346;-1.688;2023-03-03T03:55:53;3.60;99.90
28171;DHT22;15458;53.346;-1.688;2023-03-03T03:58:19;3.60;99.90
28171;DHT22;15458;53.346;-1.688;2023-03-03T04:00:46;3.50;99.90
28171;DHT22;15458;53.346;-1.688;2023-03-03T04:03:12;3.60;99.90
28171;DHT22;15458;53.346;-1.688;2023-03-03T04:05:41;3.50;99.90
28171;DHT22;15458;53.346;-1.688;2023-03-03T04:08:06;3.60;99.90
28171;DHT22;15458;53.346;-1.688;2023-03-03T04:10:32;3.50;99.90
28171;DHT22;15458;53.346;-1.688;2023-03-03T04:12:58;3.50;99.90
28171;DHT22;15458;53.346;-1.688;2023-03-03T04:15:23;3.50;99.90
28171;DHT22;15458;53.346;-1.688;2023-03-03T04:17:49;3.60;99.90
28171;DHT22;15458;53.346;-1.688;2023-03-03T04:20:15;3.60;99.90
28171;DHT22;15458;53.346;-1.688;2023-03-03T04:22:41;3.60;99.90
28171;DHT22;15458;53.346;-1.688;2023-03-03T04:25:10;3.60;99.90
28171;DHT22;15458;53.346;-1.688;2023-03-03T04:27:37;3.60;99.90
28171;DHT22;15458;53.346;-1.688;2023-03-03T04:30:04;3.60;99.90
28171;DHT22;15458;53.346;-1.688;2023-03-03T04:32:30;3.60;99.90
28171;DHT22;15458;53.346;-1.688;2023-03-03T04:34:58;3.60;99.90
28171;DHT22;15458;53.346;-1.688;2023-03-03T04:37:24;3.60;99.90
28171;DHT22;15458;53.346;-1.688;2023-03-03T04:39:49;3.60;99.90
28171;DHT22;15458;53.346;-1.688;2023-03-03T04:42:15;3.60;99.90
28171;DHT22;15458;53.346;-1.688;2023-03-03T04:44:41;3.60;99.90
28171;DHT22;15458;53.346;-1.688;2023-03-03T04:47:06;3.50;99.90
28171;DHT22;15458;53.346;-1.688;2023-03-03T04:49:32;3.50;99.90
28171;DHT22;15458;53.346;-1.688;2023-03-03T04:51:57;3.50;99.90
28171;DHT22;15458;53.346;-1.688;2023-03-03T04:54:24;3.50;99.90
28171;DHT22;15458;53.346;-1.688;2023-03-03T04:56:50;3.50;99.90
28171;DHT22;15458;53.346;-1.688;2023-03-03T04:59:15;3.50;99.90
28171;DHT22;15458;53.346;-1.688;2023-03-03T05:01:41;3.40;99.90
28171;DHT22;15458;53.346;-1.688;2023-03-03T05:04:07;3.40;99.90
28171;DHT22;15458;53.346;-1.688;2023-03-03T05:06:32;3.40;99.90
28171;DHT22;15458;53.346;-1.688;2023-03-03T05:08:58;3.50;99.90
28171;DHT22;15458;53.346;-1.688;2023-03-03T05:11:24;3.50;99.90
28171;DHT22;15458;53.346;-1.688;2023-03-03T05:13:49;3.50;99.90
28171;DHT22;15458;53.346;-1.688;2023-03-03T05:16:15;3.50;99.90
28171;DHT22;15458;53.346;-1.688;2023-03-03T05:18:41;3.60;99.90
28171;DHT22;15458;53.346;-1.688;2023-03-03T05:21:07;3.60;99.90
28171;DHT22;15458;53.346;-1.688;2023-03-03T05:23:32;3.60;99.90
28171;DHT22;15458;53.346;-1.688;2023-03-03T05:25:58;3.60;99.90
28171;DHT22;15458;53.346;-1.688;2023-03-03T05:28:24;3.60;99.90
28171;DHT22;15458;53.346;-1.688;2023-03-03T05:30:50;3.60;99.90
28171;DHT22;15458;53.346;-1.688;2023-03-03T05:33:16;3.60;99.90
28171;DHT22;15458;53.346;-1.688;2023-03-03T05:35:42;3.50;99.90
28171;DHT22;15458;53.346;-1.688;2023-03-03T05:38:08;3.50;99.90
28171;DHT22;15458;53.346;-1.688;2023-03-03T05:40:34;3.50;99.90
28171;DHT22;15458;53.346;-1.688;2023-03-03T05:43:00;3.50;99.90
28171;DHT22;15458;53.346;-1.688;2023-03-03T05:45:26;3.50;99.90
28171;DHT22;15458;53.346;-1.688;2023-03-03T05:47:52;3.50;99.90
28171;DHT22;15458;53.346;-1.688;2023-03-03T05:50:20;3.40;99.90
28171;DHT22;15458;53.346;-1.688;2023-03-03T05:52:52;3.40;99.90
28171;DHT22;15458;53.346;-1.688;2023-03-03T05:55:18;3.40;99.90
28171;DHT22;15458;53.346;-1.688;2023-03-03T05:57:44;3.40;99.90
28171;DHT22;15458;53.346;-1.688;2023-03-03T06:00:11;3.40;99.90
28171;DHT22;15458;53.346;-1.688;2023-03-03T06:02:37;3.40;99.90
28171;DHT22;15458;53.346;-1.688;2023-03-03T06:05:03;3.40;99.90
28171;DHT22;15458;53.346;-1.688;2023-03-03T06:07:29;3.40;99.90
28171;DHT22;15458;53.346;-1.688;2023-03-03T06:09:54;3.40;99.90
28171;DHT22;15458;53.346;-1.688;2023-03-03T06:12:20;3.40;99.90
28171;DHT22;15458;53.346;-1.688;2023-03-03T06:14:46;3.40;99.90
28171;DHT22;15458;53.346;-1.688;2023-03-03T06:17:12;3.40;99.90
28171;DHT22;15458;53.346;-1.688;2023-03-03T06:19:38;3.30;99.90
28171;DHT22;15458;53.346;-1.688;2023-03-03T06:22:03;3.30;99.90
28171;DHT22;15458;53.346;-1.688;2023-03-03T06:24:29;3.30;99.90
28171;DHT22;15458;53.346;-1.688;2023-03-03T06:26:59;3.30;99.90
28171;DHT22;15458;53.346;-1.688;2023-03-03T06:29:26;3.30;99.90
28171;DHT22;15458;53.346;-1.688;2023-03-03T06:31:52;3.30;99.90
28171;DHT22;15458;53.346;-1.688;2023-03-03T06:34:18;3.40;99.90
28171;DHT22;15458;53.346;-1.688;2023-03-03T06:36:43;3.40;99.90
28171;DHT22;15458;53.346;-1.688;2023-03-03T06:39:11;3.40;99.90
28171;DHT22;15458;53.346;-1.688;2023-03-03T06:41:37;3.40;99.90
28171;DHT22;15458;53.346;-1.688;2023-03-03T06:44:03;3.30;99.90
28171;DHT22;15458;53.346;-1.688;2023-03-03T06:46:29;3.30;99.90
28171;DHT22;15458;53.346;-1.688;2023-03-03T06:48:55;3.30;99.90
28171;DHT22;15458;53.346;-1.688;2023-03-03T06:53:54;3.30;99.90
28171;DHT22;15458;53.346;-1.688;2023-03-03T06:56:22;3.30;99.90
28171;DHT22;15458;53.346;-1.688;2023-03-03T06:58:53;3.30;99.90
28171;DHT22;15458;53.346;-1.688;2023-03-03T07:01:19;3.30;99.90
28171;DHT22;15458;53.346;-1.688;2023-03-03T07:03:45;3.30;99.90
28171;DHT22;15458;53.346;-1.688;2023-03-03T07:06:24;3.30;99.90
28171;DHT22;15458;53.346;-1.688;2023-03-03T07:08:52;3.30;99.90
28171;DHT22;15458;53.346;-1.688;2023-03-03T07:11:20;3.30;99.90
28171;DHT22;15458;53.346;-1.688;2023-03-03T07:13:52;3.30;99.90
28171;DHT22;15458;53.346;-1.688;2023-03-03T07:16:25;3.20;99.90
28171;DHT22;15458;53.346;-1.688;2023-03-03T07:18:59;3.20;99.90
28171;DHT22;15458;53.346;-1.688;2023-03-03T07:21:36;3.20;99.90
28171;DHT22;15458;53.346;-1.688;2023-03-03T07:24:29;3.20;99.90
28171;DHT22;15458;53.346;-1.688;2023-03-03T07:29:33;3.20;99.90
28171;DHT22;15458;53.346;-1.688;2023-03-03T07:32:00;3.20;99.90
28171;DHT22;15458;53.346;-1.688;2023-03-03T07:34:36;3.10;99.90
28171;DHT22;15458;53.346;-1.688;2023-03-03T07:37:15;3.10;99.90
28171;DHT22;15458;53.346;-1.688;2023-03-03T07:39:46;3.20;99.90
28171;DHT22;15458;53.346;-1.688;2023-03-03T07:42:23;3.10;99.90
28171;DHT22;15458;53.346;-1.688;2023-03-03T07:44:55;3.20;99.90
28171;DHT22;15458;53.346;-1.688;2023-03-03T07:47:27;3.20;99.90
28171;DHT22;15458;53.346;-1.688;2023-03-03T07:49:56;3.20;99.90
28171;DHT22;15458;53.346;-1.688;2023-03-03T07:52:38;3.20;99.90
28171;DHT22;15458;53.346;-1.688;2023-03-03T07:55:40;3.20;99.90
28171;DHT22;15458;53.346;-1.688;2023-03-03T07:58:36;3.20;99.90
28171;DHT22;15458;53.346;-1.688;2023-03-03T08:07:17;3.40;99.90
28171;DHT22;15458;53.346;-1.688;2023-03-03T08:09:58;3.50;99.90
28171;DHT22;15458;53.346;-1.688;2023-03-03T08:12:40;3.50;99.90
28171;DHT22;15458;53.346;-1.688;2023-03-03T08:15:24;3.50;99.90
28171;DHT22;15458;53.346;-1.688;2023-03-03T08:17:52;3.50;99.90
28171;DHT22;15458;53.346;-1.688;2023-03-03T08:22:56;3.60;99.90
28171;DHT22;15458;53.346;-1.688;2023-03-03T08:25:22;3.60;99.90
28171;DHT22;15458;53.346;-1.688;2023-03-03T08:27:48;3.60;99.90
28171;DHT22;15458;53.346;-1.688;2023-03-03T08:30:13;3.70;99.90
28171;DHT22;15458;53.346;-1.688;2023-03-03T08:32:39;3.70;99.90
28171;DHT22;15458;53.346;-1.688;2023-03-03T08:35:05;3.70;99.90
28171;DHT22;15458;53.346;-1.688;2023-03-03T08:37:31;3.70;99.90
28171;DHT22;15458;53.346;-1.688;2023-03-03T08:39:57;3.70;99.90
28171;DHT22;15458;53.346;-1.688;2023-03-03T08:42:42;3.80;99.90
28171;DHT22;15458;53.346;-1.688;2023-03-03T08:45:08;3.80;99.90
28171;DHT22;15458;53.346;-1.688;2023-03-03T08:47:56;3.80;99.90
28171;DHT22;15458;53.346;-1.688;2023-03-03T08:50:43;3.80;99.90
28171;DHT22;15458;53.346;-1.688;2023-03-03T08:53:11;3.80;99.90
28171;DHT22;15458;53.346;-1.688;2023-03-03T08:55:38;3.90;99.90
28171;DHT22;15458;53.346;-1.688;2023-03-03T08:58:03;3.80;99.90
28171;DHT22;15458;53.346;-1.688;2023-03-03T09:00:29;3.90;99.90
28171;DHT22;15458;53.346;-1.688;2023-03-03T09:02:55;3.90;99.90
28171;DHT22;15458;53.346;-1.688;2023-03-03T09:05:22;3.90;99.90
28171;DHT22;15458;53.346;-1.688;2023-03-03T09:07:48;3.90;99.90
28171;DHT22;15458;53.346;-1.688;2023-03-03T09:10:19;3.90;99.90
28171;DHT22;15458;53.346;-1.688;2023-03-03T09:12:50;3.90;99.90
28171;DHT22;15458;53.346;-1.688;2023-03-03T09:17:45;3.90;99.90
28171;DHT22;15458;53.346;-1.688;2023-03-03T09:22:47;4.00;99.90
28171;DHT22;15458;53.346;-1.688;2023-03-03T09:27:52;4.00;99.90
28171;DHT22;15458;53.346;-1.688;2023-03-03T09:30:34;4.10;99.90
28171;DHT22;15458;53.346;-1.688;2023-03-03T09:33:01;4.10;99.90
28171;DHT22;15458;53.346;-1.688;2023-03-03T09:35:41;4.10;99.90
28171;DHT22;15458;53.346;-1.688;2023-03-03T09:38:29;4.10;99.90
28171;DHT22;15458;53.346;-1.688;2023-03-03T09:51:59;4.10;99.90
28171;DHT22;15458;53.346;-1.688;2023-03-03T10:02:57;4.20;99.90
28171;DHT22;15458;53.346;-1.688;2023-03-03T10:05:47;4.30;99.90
28171;DHT22;15458;53.346;-1.688;2023-03-03T10:08:29;4.30;99.90
28171;DHT22;15458;53.346;-1.688;2023-03-03T10:13:51;4.30;99.90
28171;DHT22;15458;53.346;-1.688;2023-03-03T10:16:40;4.40;99.90
28171;DHT22;15458;53.346;-1.688;2023-03-03T10:19:56;4.40;99.90
28171;DHT22;15458;53.346;-1.688;2023-03-03T10:24:30;4.40;99.90
28171;DHT22;15458;53.346;-1.688;2023-03-03T10:33:01;4.40;99.90
28171;DHT22;15458;53.346;-1.688;2023-03-03T10:36:26;4.40;99.90
28171;DHT22;15458;53.346;-1.688;2023-03-03T10:39:21;4.40;99.90
28171;DHT22;15458;53.346;-1.688;2023-03-03T11:00:28;4.70;99.90
28171;DHT22;15458;53.346;-1.688;2023-03-03T11:05:58;4.80;99.90
28171;DHT22;15458;53.346;-1.688;2023-03-03T11:08:48;4.90;99.90
28171;DHT22;15458;53.346;-1.688;2023-03-03T11:11:26;5.00;99.90
28171;DHT22;15458;53.346;-1.688;2023-03-03T11:23:10;5.20;99.90
28171;DHT22;15458;53.346;-1.688;2023-03-03T11:26:07;5.20;99.90
28171;DHT22;15458;53.346;-1.688;2023-03-03T11:37:21;5.40;99.90
28171;DHT22;15458;53.346;-1.688;2023-03-03T11:39:50;5.40;99.90
28171;DHT22;15458;53.346;-1.688;2023-03-03T11:45:18;5.50;99.90
28171;DHT22;15458;53.346;-1.688;2023-03-03T11:48:35;5.50;99.90
28171;DHT22;15458;53.346;-1.688;2023-03-03T11:56:22;5.60;99.90
28171;DHT22;15458;53.346;-1.688;2023-03-03T12:01:51;5.60;99.90
28171;DHT22;15458;53.346;-1.688;2023-03-03T12:04:42;5.70;99.90
28171;DHT22;15458;53.346;-1.688;2023-03-03T12:10:19;5.90;99.90
28171;DHT22;15458;53.346;-1.688;2023-03-03T12:13:00;6.00;99.90
28171;DHT22;15458;53.346;-1.688;2023-03-03T12:18:59;6.10;99.90
28171;DHT22;15458;53.346;-1.688;2023-03-03T12:21:41;6.10;99.90
28171;DHT22;15458;53.346;-1.688;2023-03-03T12:24:12;6.10;99.90
28171;DHT22;15458;53.346;-1.688;2023-03-03T12:27:18;6.10;99.90
28171;DHT22;15458;53.346;-1.688;2023-03-03T12:30:05;6.00;99.90
28171;DHT22;15458;53.346;-1.688;2023-03-03T12:38:26;5.90;99.90
28171;DHT22;15458;53.346;-1.688;2023-03-03T12:41:10;5.80;99.90
28171;DHT22;15458;53.346;-1.688;2023-03-03T12:43:51;5.80;99.90
28171;DHT22;15458;53.346;-1.688;2023-03-03T12:48:53;5.80;99.90
28171;DHT22;15458;53.346;-1.688;2023-03-03T12:51:45;5.90;99.90
28171;DHT22;15458;53.346;-1.688;2023-03-03T12:54:31;5.90;99.90
28171;DHT22;15458;53.346;-1.688;2023-03-03T12:57:20;5.90;99.90
28171;DHT22;15458;53.346;-1.688;2023-03-03T13:00:21;6.00;99.90
28171;DHT22;15458;53.346;-1.688;2023-03-03T13:02:59;6.00;99.90
28171;DHT22;15458;53.346;-1.688;2023-03-03T13:10:38;6.10;99.90
28171;DHT22;15458;53.346;-1.688;2023-03-03T13:16:02;6.20;99.90
28171;DHT22;15458;53.346;-1.688;2023-03-03T13:21:04;6.30;99.90
28171;DHT22;15458;53.346;-1.688;2023-03-03T13:23:50;6.30;99.90
28171;DHT22;15458;53.346;-1.688;2023-03-03T13:26:33;6.40;99.90
28171;DHT22;15458;53.346;-1.688;2023-03-03T13:37:19;6.40;99.90
28171;DHT22;15458;53.346;-1.688;2023-03-03T13:42:44;6.40;99.90
28171;DHT22;15458;53.346;-1.688;2023-03-03T13:45:24;6.40;99.90
28171;DHT22;15458;53.346;-1.688;2023-03-03T13:50:46;6.40;99.90
28171;DHT22;15458;53.346;-1.688;2023-03-03T14:04:53;6.60;99.90
28171;DHT22;15458;53.346;-1.688;2023-03-03T14:10:34;6.70;99.90
28171;DHT22;15458;53.346;-1.688;2023-03-03T14:18:28;6.70;99.90
28171;DHT22;15458;53.346;-1.688;2023-03-03T14:21:18;6.70;99.90
28171;DHT22;15458;53.346;-1.688;2023-03-03T14:26:21;6.80;99.90
28171;DHT22;15458;53.346;-1.688;2023-03-03T14:28:49;6.90;99.90
28171;DHT22;15458;53.346;-1.688;2023-03-03T14:31:28;7.00;99.90
28171;DHT22;15458;53.346;-1.688;2023-03-03T14:36:41;7.20;99.90
28171;DHT22;15458;53.346;-1.688;2023-03-03T14:41:51;7.30;99.90
28171;DHT22;15458;53.346;-1.688;2023-03-03T14:44:28;7.30;99.90
28171;DHT22;15458;53.346;-1.688;2023-03-03T14:49:31;7.40;99.90
28171;DHT22;15458;53.346;-1.688;2023-03-03T14:54:44;7.40;99.90
28171;DHT22;15458;53.346;-1.688;2023-03-03T14:57:19;7.30;99.90
28171;DHT22;15458;53.346;-1.688;2023-03-03T15:00:08;7.30;99.90
28171;DHT22;15458;53.346;-1.688;2023-03-03T15:05:22;7.30;99.90
28171;DHT22;15458;53.346;-1.688;2023-03-03T15:12:58;7.30;99.90
28171;DHT22;15458;53.346;-1.688;2023-03-03T15:15:32;7.30;99.90
28171;DHT22;15458;53.346;-1.688;2023-03-03T15:18:00;7.30;99.90
28171;DHT22;15458;53.346;-1.688;2023-03-03T15:20:39;7.30;99.90
28171;DHT22;15458;53.346;-1.688;2023-03-03T15:28:55;7.30;99.90
28171;DHT22;15458;53.346;-1.688;2023-03-03T15:34:40;7.20;99.90
28171;DHT22;15458;53.346;-1.688;2023-03-03T15:37:46;7.20;99.90
28171;DHT22;15458;53.346;-1.688;2023-03-03T15:43:38;7.20;99.90
28171;DHT22;15458;53.346;-1.688;2023-03-03T15:49:34;7.10;99.90
28171;DHT22;15458;53.346;-1.688;2023-03-03T15:52:15;7.10;99.90
28171;DHT22;15458;53.346;-1.688;2023-03-03T16:02:38;7.10;99.90
28171;DHT22;15458;53.346;-1.688;2023-03-03T16:08:18;7.00;99.90
28171;DHT22;15458;53.346;-1.688;2023-03-03T16:10:49;7.00;99.90
28171;DHT22;15458;53.346;-1.688;2023-03-03T16:21:20;6.90;99.90
28171;DHT22;15458;53.346;-1.688;2023-03-03T16:23:55;6.90;99.90
28171;DHT22;15458;53.346;-1.688;2023-03-03T16:26:59;6.90;99.90
28171;DHT22;15458;53.346;-1.688;2023-03-03T16:32:52;6.80;99.90
28171;DHT22;15458;53.346;-1.688;2023-03-03T16:35:27;6.80;99.90
28171;DHT22;15458;53.346;-1.688;2023-03-03T16:37:59;6.80;99.90
28171;DHT22;15458;53.346;-1.688;2023-03-03T16:40:35;6.80;99.90
28171;DHT22;15458;53.346;-1.688;2023-03-03T16:45:37;6.80;99.90
28171;DHT22;15458;53.346;-1.688;2023-03-03T16:53:56;6.80;99.90
28171;DHT22;15458;53.346;-1.688;2023-03-03T16:56:31;6.80;99.90
28171;DHT22;15458;53.346;-1.688;2023-03-03T17:04:53;6.90;99.90
28171;DHT22;15458;53.346;-1.688;2023-03-03T17:07:42;6.90;99.90
28171;DHT22;15458;53.346;-1.688;2023-03-03T17:18:48;6.80;99.90
28171;DHT22;15458;53.346;-1.688;2023-03-03T17:27:58;6.70;99.90
28171;DHT22;15458;53.346;-1.688;2023-03-03T17:35:31;6.70;99.90
28171;DHT22;15458;53.346;-1.688;2023-03-03T17:40:51;6.70;99.90
28171;DHT22;15458;53.346;-1.688;2023-03-03T17:46:27;6.70;99.90
28171;DHT22;15458;53.346;-1.688;2023-03-03T17:54:32;6.60;99.90
28171;DHT22;15458;53.346;-1.688;2023-03-03T17:57:06;6.60;99.90
28171;DHT22;15458;53.346;-1.688;2023-03-03T18:19:40;6.40;99.90
28171;DHT22;15458;53.346;-1.688;2023-03-03T18:22:21;6.40;99.90
28171;DHT22;15458;53.346;-1.688;2023-03-03T18:27:41;6.40;99.90
28171;DHT22;15458;53.346;-1.688;2023-03-03T18:38:24;6.20;99.90
28171;DHT22;15458;53.346;-1.688;2023-03-03T18:40:55;6.20;99.90
28171;DHT22;15458;53.346;-1.688;2023-03-03T18:49:06;6.10;99.90
28171;DHT22;15458;53.346;-1.688;2023-03-03T19:02:19;6.00;99.90
28171;DHT22;15458;53.346;-1.688;2023-03-03T19:04:52;6.00;99.90
28171;DHT22;15458;53.346;-1.688;2023-03-03T19:09:59;5.90;99.90
28171;DHT22;15458;53.346;-1.688;2023-03-03T19:12:55;5.90;99.90
28171;DHT22;15458;53.346;-1.688;2023-03-03T19:18:26;5.90;99.90
28171;DHT22;15458;53.346;-1.688;2023-03-03T19:21:05;5.90;99.90
28171;DHT22;15458;53.346;-1.688;2023-03-03T19:24:01;5.90;99.90
28171;DHT22;15458;53.346;-1.688;2023-03-03T19:32:30;5.90;99.90
28171;DHT22;15458;53.346;-1.688;2023-03-03T19:43:37;5.80;99.90
28171;DHT22;15458;53.346;-1.688;2023-03-03T19:48:52;5.70;99.90
28171;DHT22;15458;53.346;-1.688;2023-03-03T19:56:55;5.60;99.90
28171;DHT22;15458;53.346;-1.688;2023-03-03T20:10:32;5.90;99.90
28171;DHT22;15458;53.346;-1.688;2023-03-03T20:27:03;6.00;99.90
28171;DHT22;15458;53.346;-1.688;2023-03-03T20:38:22;5.80;99.90
28171;DHT22;15458;53.346;-1.688;2023-03-03T20:52:04;5.60;99.90
28171;DHT22;15458;53.346;-1.688;2023-03-03T20:57:18;5.60;99.90
28171;DHT22;15458;53.346;-1.688;2023-03-03T20:59:52;5.60;99.90
28171;DHT22;15458;53.346;-1.688;2023-03-03T21:02:41;5.60;99.90
28171;DHT22;15458;53.346;-1.688;2023-03-03T21:05:15;5.50;99.90
28171;DHT22;15458;53.346;-1.688;2023-03-03T21:07:58;5.50;99.90
28171;DHT22;15458;53.346;-1.688;2023-03-03T21:10:34;5.50;99.90
28171;DHT22;15458;53.346;-1.688;2023-03-03T21:15:58;5.40;99.90
28171;DHT22;15458;53.346;-1.688;2023-03-03T21:18:26;5.40;99.90
28171;DHT22;15458;53.346;-1.688;2023-03-03T21:20:52;5.40;99.90
28171;DHT22;15458;53.346;-1.688;2023-03-03T21:23:21;5.40;99.90
28171;DHT22;15458;53.346;-1.688;2023-03-03T21:25:52;5.40;99.90
28171;DHT22;15458;53.346;-1.688;2023-03-03T21:28:30;5.30;99.90
28171;DHT22;15458;53.346;-1.688;2023-03-03T21:31:15;5.20;99.90
28171;DHT22;15458;53.346;-1.688;2023-03-03T21:33:53;5.20;99.90
28171;DHT22;15458;53.346;-1.688;2023-03-03T21:36:43;5.20;99.90
28171;DHT22;15458;53.346;-1.688;2023-03-03T21:39:32;5.20;99.90
28171;DHT22;15458;53.346;-1.688;2023-03-03T21:42:04;5.10;99.90
28171;DHT22;15458;53.346;-1.688;2023-03-03T21:44:42;5.10;99.90
28171;DHT22;15458;53.346;-1.688;2023-03-03T21:47:11;5.10;99.90
28171;DHT22;15458;53.346;-1.688;2023-03-03T21:49:47;5.20;99.90
28171;DHT22;15458;53.346;-1.688;2023-03-03T21:52:15;5.30;99.90
28171;DHT22;15458;53.346;-1.688;2023-03-03T21:54:42;5.40;99.90
28171;DHT22;15458;53.346;-1.688;2023-03-03T21:57:08;5.40;99.90
28171;DHT22;15458;53.346;-1.688;2023-03-03T21:59:34;5.50;99.90
28171;DHT22;15458;53.346;-1.688;2023-03-03T22:02:01;5.40;99.90
28171;DHT22;15458;53.346;-1.688;2023-03-03T22:04:27;5.40;99.90
28171;DHT22;15458;53.346;-1.688;2023-03-03T22:06:52;5.30;99.90
28171;DHT22;15458;53.346;-1.688;2023-03-03T22:09:18;5.30;99.90
28171;DHT22;15458;53.346;-1.688;2023-03-03T22:11:44;5.30;99.90
28171;DHT22;15458;53.346;-1.688;2023-03-03T22:14:10;5.20;99.90
28171;DHT22;15458;53.346;-1.688;2023-03-03T22:16:36;5.20;99.90
28171;DHT22;15458;53.346;-1.688;2023-03-03T22:19:02;5.20;99.90
28171;DHT22;15458;53.346;-1.688;2023-03-03T22:21:28;5.20;99.90
28171;DHT22;15458;53.346;-1.688;2023-03-03T22:23:54;5.10;99.90
28171;DHT22;15458;53.346;-1.688;2023-03-03T22:26:20;5.10;99.90
28171;DHT22;15458;53.346;-1.688;2023-03-03T22:28:47;5.10;99.90
28171;DHT22;15458;53.346;-1.688;2023-03-03T22:31:13;5.10;99.90
28171;DHT22;15458;53.346;-1.688;2023-03-03T22:33:39;5.00;99.90
28171;DHT22;15458;53.346;-1.688;2023-03-03T22:36:06;5.00;99.90
28171;DHT22;15458;53.346;-1.688;2023-03-03T22:38:33;5.00;99.90
28171;DHT22;15458;53.346;-1.688;2023-03-03T22:40:58;5.00;99.90